createdAt,value
2023-01-20T10:56:03.236Z,99895.75
2023-01-20T10:57:15.900Z,99882.37
2023-01-20T10:58:21.192Z,99885.19
2023-01-20T10:59:29.600Z,99889.66
2023-01-20T11:00:33.621Z,99887.25
2023-01-20T11:01:37.071Z,99894.03
2023-01-20T11:02:41.375Z,99886.03
2023-01-20T11:03:45.827Z,99888.25
2023-01-20T11:04:51.938Z,99888.58
2023-01-20T11:05:55.311Z,99893.18
2023-01-20T11:07:01.929Z,99899.02
2023-01-20T11:08:18.413Z,99895.84
2023-01-20T11:09:25.564Z,99886.03
2023-01-20T11:10:29.506Z,99877.27
2023-01-20T11:11:32.910Z,99884.13
2023-01-20T11:12:38.500Z,99891.52
2023-01-20T11:13:40.853Z,99888.69
2023-01-20T11:14:45.089Z,99889.69
2023-01-20T11:15:50.255Z,99897.14
2023-01-20T11:16:56.229Z,99884.75
2023-01-20T11:18:16.624Z,99895.22
2023-01-20T11:19:22.187Z,99893.45
2023-01-20T11:20:28.742Z,99892.97
2023-01-20T11:21:37.191Z,99893.90
2023-01-20T11:22:45.191Z,99892.60
2023-01-20T11:23:50.717Z,99890.55
2023-01-20T11:24:55.487Z,99889.95
2023-01-20T11:25:59.502Z,99887.59
2023-01-20T11:27:07.800Z,99897.09
2023-01-20T11:28:18.858Z,99897.83
2023-01-20T11:29:23.278Z,99891.08
2023-01-20T11:30:28.679Z,99886.80
2023-01-20T11:31:40.956Z,99889.70
2023-01-20T11:32:45.227Z,99890.55
2023-01-20T11:33:58.856Z,99886.72
2023-01-20T11:35:03.381Z,99889.46
2023-01-20T11:36:07.441Z,99885.53
2023-01-20T11:37:13.940Z,99881.22
2023-01-20T11:38:24.442Z,99886.20
2023-01-20T11:39:33.601Z,99890.35
2023-01-20T11:40:36.697Z,99895.88
2023-01-20T11:41:40.133Z,99889.58
2023-01-20T11:42:45.242Z,99893.77
2023-01-20T11:43:49.282Z,99895.64
2023-01-20T11:44:54.105Z,99903.02
2023-01-20T11:46:10.842Z,99905.16
2023-01-20T11:47:24.244Z,99897.69
2023-01-20T11:48:27.740Z,99913.16
2023-01-20T11:49:30.613Z,99912.52
2023-01-20T11:50:42.380Z,99906.95
2023-01-20T11:51:50.616Z,99905.96
2023-01-20T11:52:53.033Z,99909.53
2023-01-20T11:54:10.776Z,99911.36
2023-01-20T11:55:20.621Z,99905.67
2023-01-20T11:56:29.099Z,99916.34
2023-01-20T11:57:32.128Z,99907.13
2023-01-20T11:58:37.522Z,99918.26
2023-01-20T11:59:42.798Z,99920.08
2023-01-20T12:00:46.612Z,99917.66
2023-01-20T12:01:52.214Z,99916.09
2023-01-20T12:03:01.371Z,99909.66
2023-01-20T12:04:15.015Z,99914.09
2023-01-20T12:05:25.182Z,99916.16
2023-01-20T12:06:36.512Z,99907.38
2023-01-20T12:07:40.954Z,99907.25
2023-01-20T12:08:47.599Z,99912.08
2023-01-20T12:09:54.150Z,99914.62
2023-01-20T12:11:00.284Z,99919.05
2023-01-20T12:12:05.635Z,99922.21
2023-01-20T12:13:12.591Z,99920.39
2023-01-20T12:14:29.168Z,99916.81
2023-01-20T12:15:34.209Z,99925.13
2023-01-20T12:16:38.514Z,99920.14
2023-01-20T12:17:46.247Z,99922.21
2023-01-20T12:19:01.695Z,99929.38
2023-01-20T12:20:07.146Z,99934.60
2023-01-20T12:21:21.201Z,99934.22
2023-01-20T12:22:26.369Z,99930.84
2023-01-20T12:23:34.674Z,99923.34
2023-01-20T12:24:43.200Z,99927.21
2023-01-20T12:25:50.888Z,99930.95
2023-01-20T12:26:54.564Z,99929.03
2023-01-20T12:28:04.658Z,99934.09
2023-01-20T12:29:09.236Z,99937.13
2023-01-20T12:30:23.089Z,99943.80
2023-01-20T12:31:31.265Z,99947.45
2023-01-20T12:32:34.376Z,99941.86
2023-01-20T12:33:39.540Z,99945.99
2023-01-20T12:34:43.803Z,99949.51
2023-01-20T12:35:48.960Z,99948.45
2023-01-20T12:37:00.120Z,99948.91
2023-01-20T12:38:06.509Z,99954.27
2023-01-20T12:39:20.678Z,99951.16
2023-01-20T12:40:29.720Z,99953.73
2023-01-20T12:41:44.535Z,99949.75
2023-01-20T12:42:58.112Z,99953.61
2023-01-20T12:44:03.203Z,99956.89
2023-01-20T12:45:10.582Z,99960.14
2023-01-20T12:46:28.797Z,99953.13
2023-01-20T12:47:45.901Z,99953.00
2023-01-20T12:49:02.353Z,99958.56
2023-01-20T12:50:25.782Z,99957.26
2023-01-20T12:51:29.945Z,99962.81
2023-01-20T12:52:35.341Z,99956.14
2023-01-20T12:53:41.867Z,99957.61
2023-01-20T12:54:49.253Z,99945.84
2023-01-20T12:56:14.220Z,99954.32
2023-01-20T12:57:28.621Z,99949.86
2023-01-20T12:58:45.482Z,99956.26
2023-01-20T12:59:53.718Z,99953.71
2023-01-20T13:00:58.990Z,99961.58
2023-01-20T13:02:04.248Z,99960.84
2023-01-20T13:03:14.901Z,99957.09
2023-01-20T13:04:36.325Z,99956.99
2023-01-20T13:05:43.487Z,99956.99
2023-01-20T13:07:00.933Z,99959.03
2023-01-20T13:08:22.772Z,99956.37
2023-01-20T13:09:33.588Z,99958.92
2023-01-20T13:10:50.898Z,99957.22
2023-01-20T13:11:54.289Z,99947.66
2023-01-20T13:13:11.572Z,99956.60
2023-01-20T13:14:24.686Z,99960.34
2023-01-20T13:15:30.457Z,99952.52
2023-01-20T13:16:42.770Z,99956.34
2023-01-20T13:18:03.829Z,99956.82
2023-01-20T13:19:14.530Z,99959.64
2023-01-20T13:20:25.432Z,99962.89
2023-01-20T13:21:32.231Z,99950.09
2023-01-20T13:22:36.599Z,99955.52
2023-01-20T13:23:40.151Z,99952.01
2023-01-20T13:24:45.612Z,99959.64
2023-01-20T13:25:48.427Z,99957.44
2023-01-20T13:26:53.110Z,99956.59
2023-01-20T13:27:57.195Z,99951.11
2023-01-20T13:29:02.387Z,99955.47
2023-01-20T13:30:06.889Z,99955.97
2023-01-20T13:31:29.303Z,99952.23
2023-01-20T13:32:36.459Z,99957.91
2023-01-20T13:33:41.665Z,99951.43
2023-01-20T13:34:44.863Z,99960.09
2023-01-20T13:35:50.758Z,99957.20
2023-01-20T13:37:05.976Z,99957.59
2023-01-20T13:38:11.365Z,99966.98
2023-01-20T13:39:29.415Z,99974.86
2023-01-20T13:40:35.258Z,99967.33
2023-01-20T13:41:48.967Z,99964.11
2023-01-20T13:42:51.953Z,99975.56
2023-01-20T13:43:55.409Z,99968.88
2023-01-20T13:45:17.166Z,99971.65
2023-01-20T13:46:22.813Z,99971.42
2023-01-20T13:47:43.985Z,99966.08
2023-01-20T13:49:07.513Z,99971.94
2023-01-20T13:50:11.952Z,99967.81
2023-01-20T13:51:33.875Z,99984.88
2023-01-20T13:52:48.617Z,99978.55
2023-01-20T13:53:52.139Z,99971.10
2023-01-20T13:54:57.310Z,99968.77
2023-01-20T13:56:01.890Z,99966.39
2023-01-20T13:57:27.258Z,99974.09
2023-01-20T13:58:35.590Z,99974.19
2023-01-20T13:59:38.491Z,99973.08
2023-01-20T14:00:43.035Z,99972.48
2023-01-20T14:01:45.337Z,99974.60
2023-01-20T14:02:49.940Z,99974.28
2023-01-20T14:04:04.410Z,99973.33
2023-01-20T14:05:13.466Z,99971.84
2023-01-20T14:06:18.852Z,99974.24
2023-01-20T14:07:23.148Z,99980.41
2023-01-20T14:08:27.759Z,99978.59
2023-01-20T14:09:30.844Z,99977.75
2023-01-20T14:10:35.588Z,99972.65
2023-01-20T14:11:40.963Z,99977.36
2023-01-20T14:12:44.354Z,99981.40
2023-01-20T14:13:56.814Z,99975.63
2023-01-20T14:15:02.052Z,99979.38
2023-01-20T14:16:05.772Z,99979.94
2023-01-20T14:17:10.806Z,99981.53
2023-01-20T14:18:15.455Z,99981.64
2023-01-20T14:19:27.468Z,99982.39
2023-01-20T14:20:31.459Z,99979.94
2023-01-20T14:21:44.055Z,99977.08
2023-01-20T14:22:47.766Z,99982.39
2023-01-20T14:23:50.538Z,99983.45
2023-01-20T14:24:54.687Z,99977.61
2023-01-20T14:25:58.594Z,99985.56
2023-01-20T14:27:23.243Z,99983.77
2023-01-20T14:28:26.808Z,99979.22
2023-01-20T14:29:29.922Z,99987.20
2023-01-20T14:30:33.140Z,99989.17
2023-01-20T14:32:52.486Z,99982.27
2023-01-20T14:33:57.482Z,99983.13
2023-01-20T14:35:02.362Z,99983.02
2023-01-20T14:36:09.128Z,99983.22
2023-01-20T14:37:21.260Z,99982.73
2023-01-20T14:38:25.611Z,99982.38
2023-01-20T14:39:30.058Z,99981.94
2023-01-20T14:40:35.979Z,99983.98
2023-01-20T14:41:51.458Z,99991.28
2023-01-20T14:43:00.009Z,99988.30
2023-01-20T14:44:03.606Z,99978.43
2023-01-20T14:45:10.661Z,99986.19
2023-01-20T14:46:12.986Z,99983.54
2023-01-20T14:47:16.848Z,99979.28
2023-01-20T14:48:34.470Z,99987.79
2023-01-20T14:49:31.977Z,99988.19
2023-01-20T14:50:35.656Z,99987.42
2023-01-20T14:51:39.319Z,99989.98
2023-01-20T14:52:43.166Z,99987.58
2023-01-20T14:53:47.911Z,99992.64
2023-01-20T14:54:52.817Z,99993.92
2023-01-20T14:56:12.330Z,99991.18
2023-01-20T14:57:22.387Z,99990.09
2023-01-20T14:58:25.939Z,99994.53
2023-01-20T14:59:28.363Z,99991.66
2023-01-20T15:00:37.266Z,99996.21
2023-01-20T15:01:43.338Z,99998.44
2023-01-20T15:03:05.206Z,100001.52
2023-01-20T15:04:01.452Z,99999.71
2023-01-20T15:05:23.736Z,99996.41
2023-01-20T15:06:26.730Z,100002.58
2023-01-20T15:07:29.081Z,100005.14
2023-01-20T15:08:37.176Z,100005.21
2023-01-20T15:09:42.340Z,99999.58
2023-01-20T15:10:46.588Z,99994.48
2023-01-20T15:11:50.298Z,100004.03
2023-01-20T15:12:54.532Z,100001.38
2023-01-20T15:14:02.557Z,100007.64
2023-01-20T15:15:14.841Z,100001.48
2023-01-20T15:16:19.222Z,100004.13
2023-01-20T15:17:22.579Z,100001.48
2023-01-20T15:18:26.799Z,100006.59
2023-01-20T15:19:33.751Z,100008.78
2023-01-20T15:20:38.697Z,100002.72
2023-01-20T15:21:45.632Z,100002.92
2023-01-20T15:22:49.481Z,100005.94
2023-01-20T15:23:53.715Z,100004.00
2023-01-20T15:24:59.716Z,100001.35
2023-01-20T15:26:10.447Z,100001.84
2023-01-20T15:27:27.386Z,99998.63
2023-01-20T15:28:30.818Z,100006.05
2023-01-20T15:29:35.722Z,99993.79
2023-01-20T15:30:39.159Z,99999.48
2023-01-20T15:31:42.479Z,99998.23
2023-01-20T15:32:47.921Z,99995.25
2023-01-20T15:33:51.293Z,99997.73
2023-01-20T15:34:54.535Z,99997.34
2023-01-20T15:35:59.531Z,99990.30
2023-01-20T15:37:06.796Z,99989.49
2023-01-20T15:38:13.225Z,99997.73
2023-01-20T15:39:17.576Z,100000.42
2023-01-20T15:40:23.202Z,99991.66
2023-01-20T15:41:26.402Z,99995.81
2023-01-20T15:42:30.169Z,99991.31
2023-01-20T15:43:33.419Z,99998.94
2023-01-20T15:44:37.513Z,99998.18
2023-01-20T15:45:42.228Z,99995.16
2023-01-20T15:46:45.623Z,99991.66
2023-01-20T15:47:50.933Z,99991.31
2023-01-20T15:48:54.349Z,99992.34
2023-01-20T15:49:58.785Z,100004.61
2023-01-20T15:51:01.593Z,100005.08
2023-01-20T15:52:05.585Z,100002.34
2023-01-20T15:53:08.237Z,99998.42
2023-01-20T15:54:15.329Z,100002.38
2023-01-20T15:55:19.776Z,99999.72
2023-01-20T15:56:30.568Z,100002.66
2023-01-20T15:57:34.817Z,100001.42
2023-01-20T15:58:37.995Z,100004.06
2023-01-20T15:59:43.421Z,99995.77
2023-01-20T16:00:46.914Z,99995.27
2023-01-20T16:01:51.970Z,100007.11
2023-01-20T16:02:55.495Z,100002.56
2023-01-20T16:03:58.783Z,100005.48
2023-01-20T16:05:02.259Z,100001.99
2023-01-20T16:06:06.395Z,100010.90
2023-01-20T16:07:16.781Z,100005.61
2023-01-20T16:08:22.078Z,100008.34
2023-01-20T16:09:26.733Z,100007.67
2023-01-20T16:10:30.061Z,100002.75
2023-01-20T16:11:32.900Z,100007.49
2023-01-20T16:12:35.380Z,99998.80
2023-01-20T16:13:38.645Z,100008.16
2023-01-20T16:14:41.121Z,99997.17
2023-01-20T16:15:45.655Z,100003.32
2023-01-20T16:16:49.068Z,100005.70
2023-01-20T16:17:52.249Z,100014.94
2023-01-20T16:18:55.581Z,100009.38
2023-01-20T16:19:58.118Z,100009.20
2023-01-20T16:21:02.558Z,100000.98
2023-01-20T16:22:08.556Z,100007.22
2023-01-20T16:23:12.607Z,100003.14
2023-01-20T16:24:16.857Z,100007.06
2023-01-20T16:25:19.710Z,100017.23
2023-01-20T16:26:24.689Z,100012.88
2023-01-20T16:27:27.973Z,100010.95
2023-01-20T16:28:30.639Z,100016.80
2023-01-20T16:29:36.040Z,100000.11
2023-01-20T16:30:39.752Z,99997.15
2023-01-20T16:31:43.069Z,100003.88
2023-01-20T16:32:47.972Z,100000.47
2023-01-20T16:33:52.877Z,100006.33
2023-01-20T16:34:56.171Z,99998.75
2023-01-20T16:35:59.676Z,100005.76
2023-01-20T16:37:05.468Z,100002.53
2023-01-20T16:38:10.407Z,100015.43
2023-01-20T16:39:14.789Z,100013.87
2023-01-20T16:40:21.633Z,100014.27
2023-01-20T16:41:26.074Z,100011.31
2023-01-20T16:42:29.191Z,100012.44
2023-01-20T16:43:32.254Z,100005.17
2023-01-20T16:44:35.540Z,100011.50
2023-01-20T16:45:39.213Z,100006.33
2023-01-20T16:46:41.830Z,100009.44
2023-01-20T16:47:44.326Z,100012.65
2023-01-20T16:48:47.892Z,100009.16
2023-01-20T16:49:52.886Z,100010.55
2023-01-20T16:51:00.384Z,100007.36
2023-01-20T16:52:02.800Z,100008.12
2023-01-20T16:53:05.985Z,100009.52
2023-01-20T16:54:11.053Z,100015.94
2023-01-20T16:55:14.578Z,100009.80
2023-01-20T16:56:22.557Z,100016.06
2023-01-20T16:57:27.002Z,100015.20
2023-01-20T16:58:33.114Z,100013.92
2023-01-20T16:59:36.830Z,100017.34
2023-01-20T17:00:39.658Z,100018.65
2023-01-20T17:01:44.344Z,100021.86
2023-01-20T17:02:52.827Z,100033.75
2023-01-20T17:03:58.928Z,100031.84
2023-01-20T17:05:03.974Z,100029.02
2023-01-20T17:06:12.605Z,100034.48
2023-01-20T17:07:16.313Z,100027.82
2023-01-20T17:08:19.816Z,100035.84
2023-01-20T17:09:23.067Z,100031.99
2023-01-20T17:10:27.043Z,100038.75
2023-01-20T17:11:32.002Z,100040.37
2023-01-20T17:12:35.715Z,100034.34
2023-01-20T17:13:40.057Z,100035.94
2023-01-20T17:14:43.404Z,100036.16
2023-01-20T17:15:45.813Z,100037.77
2023-01-20T17:16:52.786Z,100035.39
2023-01-20T17:17:59.195Z,100040.41
2023-01-20T17:19:07.418Z,100038.03
2023-01-20T17:20:12.318Z,100043.05
2023-01-20T17:21:15.058Z,100033.16
2023-01-20T17:22:17.915Z,100035.30
2023-01-20T17:23:23.409Z,100041.56
2023-01-20T17:24:28.794Z,100043.86
2023-01-20T17:25:34.833Z,100039.09
2023-01-20T17:26:38.514Z,100040.28
2023-01-20T17:27:41.915Z,100046.51
2023-01-20T17:28:46.778Z,100042.16
2023-01-20T17:29:52.899Z,100051.53
2023-01-20T17:30:58.264Z,100050.17
2023-01-20T17:32:01.782Z,100053.58
2023-01-20T17:33:05.176Z,100048.55
2023-01-20T17:34:10.466Z,100057.36
2023-01-20T17:35:17.228Z,100050.66
2023-01-20T17:36:20.001Z,100049.20
2023-01-20T17:37:23.306Z,100053.14
2023-01-20T17:38:26.677Z,100049.12
2023-01-20T17:39:32.784Z,100052.70
2023-01-20T17:40:37.343Z,100053.22
2023-01-20T17:41:44.707Z,100051.60
2023-01-20T17:42:49.005Z,100049.03
2023-01-20T17:43:53.504Z,100049.81
2023-01-20T17:44:59.628Z,100051.08
2023-01-20T17:46:04.920Z,100051.60
2023-01-20T17:47:07.372Z,100056.64
2023-01-20T17:48:11.688Z,100048.27
2023-01-20T17:49:17.729Z,100053.64
2023-01-20T17:50:21.123Z,100055.58
2023-01-20T17:51:26.288Z,100058.74
2023-01-20T17:52:28.542Z,100059.08
2023-01-20T17:53:31.727Z,100060.09
2023-01-20T17:54:36.599Z,100061.92
2023-01-20T17:55:41.757Z,100066.59
2023-01-20T17:56:48.196Z,100057.13
2023-01-20T17:57:52.231Z,100067.28
2023-01-20T17:58:55.733Z,100072.73
2023-01-20T17:59:59.235Z,100066.23
2023-01-20T18:01:19.494Z,100057.21
2023-01-20T18:02:24.342Z,100056.11
2023-01-20T18:03:27.718Z,100064.64
2023-01-20T18:04:32.773Z,100059.69
2023-01-20T18:05:36.602Z,100068.13
2023-01-20T18:06:39.074Z,100055.00
2023-01-20T18:07:43.152Z,100063.00
2023-01-20T18:08:48.324Z,100064.26
2023-01-20T18:09:50.718Z,100065.62
2023-01-20T18:10:53.282Z,100061.37
2023-01-20T18:11:56.694Z,100065.64
2023-01-20T18:12:59.049Z,100063.09
2023-01-20T18:14:03.483Z,100066.72
2023-01-20T18:15:09.356Z,100065.52
2023-01-20T18:16:14.549Z,100060.42
2023-01-20T18:17:18.919Z,100064.08
2023-01-20T18:18:22.203Z,100064.89
2023-01-20T18:19:26.981Z,100068.55
2023-01-20T18:20:31.311Z,100063.89
2023-01-20T18:21:37.047Z,100064.00
2023-01-20T18:22:45.385Z,100069.89
2023-01-20T18:23:49.036Z,100071.06
2023-01-20T18:24:52.336Z,100076.02
2023-01-20T18:25:56.985Z,100072.61
2023-01-20T18:27:00.700Z,100071.83
2023-01-20T18:28:04.414Z,100081.61
2023-01-20T18:29:10.767Z,100078.05
2023-01-20T18:30:14.759Z,100083.36
2023-01-20T18:31:19.621Z,100085.34
2023-01-20T18:32:23.239Z,100082.27
2023-01-20T18:33:26.648Z,100086.78
2023-01-20T18:34:29.931Z,100087.78
2023-01-20T18:35:32.187Z,100092.05
2023-01-20T18:36:39.963Z,100089.06
2023-01-20T18:37:43.071Z,100092.78
2023-01-20T18:38:50.471Z,100094.48
2023-01-20T18:39:54.667Z,100093.79
2023-01-20T18:40:58.267Z,100095.63
2023-01-20T18:42:03.258Z,100096.27
2023-01-20T18:43:06.458Z,100091.64
2023-01-20T18:44:09.541Z,100101.63
2023-01-20T18:45:12.283Z,100093.35
2023-01-20T18:46:17.748Z,100099.23
2023-01-20T18:47:21.085Z,100093.66
2023-01-20T18:48:26.267Z,100095.36
2023-01-20T18:49:29.556Z,100098.22
2023-01-20T18:50:32.837Z,100105.28
2023-01-20T18:51:36.064Z,100107.99
2023-01-20T18:52:39.546Z,100105.06
2023-01-20T18:53:45.760Z,100102.72
2023-01-20T18:54:48.813Z,100104.05
2023-01-20T18:55:51.949Z,100108.33
2023-01-20T18:56:55.760Z,100115.75
2023-01-20T18:58:00.194Z,100114.27
2023-01-20T18:59:04.440Z,100111.81
2023-01-20T19:00:08.807Z,100114.97
2023-01-20T19:01:14.408Z,100120.58
2023-01-20T19:02:18.327Z,100120.95
2023-01-20T19:04:32.919Z,100121.66
2023-01-20T19:05:37.898Z,100129.86
2023-01-20T19:06:43.708Z,100122.80
2023-01-20T19:07:50.363Z,100120.50
2023-01-20T19:08:54.054Z,100129.13
2023-01-20T19:09:57.137Z,100132.69
2023-01-20T19:11:01.492Z,100127.88
2023-01-20T19:12:05.722Z,100135.47
2023-01-20T19:13:08.063Z,100127.71
2023-01-20T19:14:12.835Z,100135.15
2023-01-20T19:15:16.205Z,100132.66
2023-01-20T19:16:20.983Z,100135.22
2023-01-20T19:17:27.456Z,100130.16
2023-01-20T19:18:30.925Z,100124.75
2023-01-20T19:19:34.433Z,100129.09
2023-01-20T19:20:38.040Z,100130.66
2023-01-20T19:21:41.135Z,100126.14
2023-01-20T19:22:44.308Z,100123.92
2023-01-20T19:23:50.469Z,100122.08
2023-01-20T19:24:53.720Z,100126.03
2023-01-20T19:26:01.830Z,100124.50
2023-01-20T19:27:05.814Z,100129.84
2023-01-20T19:28:09.857Z,100128.41
2023-01-20T19:29:16.065Z,100125.23
2023-01-20T19:30:20.655Z,100121.38
2023-01-20T19:31:25.905Z,100120.17
2023-01-20T19:32:29.237Z,100119.39
2023-01-20T19:33:32.218Z,100115.12
2023-01-20T19:34:35.646Z,100124.18
2023-01-20T19:35:41.831Z,100115.29
2023-01-20T19:36:44.002Z,100111.09
2023-01-20T19:37:47.594Z,100123.05
2023-01-20T19:38:53.979Z,100123.05
2023-01-20T19:39:57.455Z,100116.21
2023-01-20T19:41:09.497Z,100128.80
2023-01-20T19:42:12.923Z,100119.77
2023-01-20T19:43:17.339Z,100126.09
2023-01-20T19:44:20.744Z,100124.38
2023-01-20T19:45:23.572Z,100129.58
2023-01-20T19:46:29.026Z,100129.58
2023-01-20T19:47:35.438Z,100131.29
2023-01-20T19:48:38.761Z,100127.29
2023-01-20T19:49:42.586Z,100141.47
2023-01-20T19:50:48.286Z,100138.73
2023-01-20T19:51:50.798Z,100137.11
2023-01-20T19:52:55.279Z,100140.46
2023-01-20T19:53:59.282Z,100133.26
2023-01-20T19:55:03.656Z,100135.47
2023-01-20T19:56:08.452Z,100138.39
2023-01-20T19:57:11.666Z,100134.48
2023-01-20T19:58:16.213Z,100134.97
2023-01-20T19:59:23.284Z,100135.10
2023-01-20T20:00:26.501Z,100132.57
2023-01-20T20:01:31.876Z,100134.56
2023-01-20T20:02:36.549Z,100141.74
2023-01-20T20:03:40.325Z,100140.07
2023-01-20T20:04:43.836Z,100138.09
2023-01-20T20:05:46.610Z,100138.69
2023-01-20T20:06:50.117Z,100140.66
2023-01-20T20:07:55.758Z,100153.03
2023-01-20T20:09:00.465Z,100145.86
2023-01-20T20:10:04.346Z,100150.59
2023-01-20T20:11:10.304Z,100154.57
2023-01-20T20:12:14.131Z,100155.48
2023-01-20T20:13:21.068Z,100148.88
2023-01-20T20:14:24.208Z,100157.56
2023-01-20T20:15:30.717Z,100161.12
2023-01-20T20:16:37.357Z,100156.58
2023-01-20T20:17:40.935Z,100164.41
2023-01-20T20:18:43.702Z,100169.08
2023-01-20T20:19:48.933Z,100161.41
2023-01-20T20:20:52.350Z,100160.69
2023-01-20T20:21:57.057Z,100171.81
2023-01-20T20:23:00.331Z,100168.27
2023-01-20T20:24:06.090Z,100157.92
2023-01-20T20:25:11.538Z,100166.05
2023-01-20T20:26:15.830Z,100163.64
2023-01-20T20:27:19.687Z,100169.56
2023-01-20T20:28:24.561Z,100168.64
2023-01-20T20:29:29.863Z,100174.03
2023-01-20T20:30:33.234Z,100177.06
2023-01-20T20:31:37.207Z,100175.30
2023-01-20T20:32:40.975Z,100180.75
2023-01-20T20:33:46.353Z,100179.83
2023-01-20T20:34:49.758Z,100179.58
2023-01-20T20:35:52.896Z,100186.13
2023-01-20T20:36:57.418Z,100178.12
2023-01-20T20:38:00.797Z,100180.50
2023-01-20T20:39:12.859Z,100183.76
2023-01-20T20:40:17.116Z,100187.33
2023-01-20T20:41:20.392Z,100187.59
2023-01-20T20:42:23.699Z,100182.51
2023-01-20T20:43:28.660Z,100187.70
2023-01-20T20:44:31.900Z,100179.98
2023-01-20T20:45:35.243Z,100186.00
2023-01-20T20:46:38.997Z,100197.95
2023-01-20T20:47:41.316Z,100188.50
2023-01-20T20:48:44.622Z,100198.77
2023-01-20T20:49:48.231Z,100186.39
2023-01-20T20:50:52.599Z,100193.88
2023-01-20T20:51:55.934Z,100194.61
2023-01-20T20:53:00.659Z,100198.09
2023-01-20T20:54:04.444Z,100191.92
2023-01-20T20:55:07.215Z,100189.05
2023-01-20T20:56:13.259Z,100186.07
2023-01-20T20:57:15.897Z,100189.36
2023-01-20T20:58:19.079Z,100186.84
2023-01-20T20:59:24.474Z,100189.70
2023-01-20T21:00:28.919Z,100189.23
2023-01-20T21:01:34.589Z,100191.86
2023-01-20T21:02:39.919Z,100196.39
2023-01-20T21:03:44.270Z,100188.91
2023-01-20T21:04:47.418Z,100195.81
2023-01-20T21:05:50.933Z,100194.73
2023-01-20T21:06:54.026Z,100199.36
2023-01-20T21:07:57.203Z,100194.95
2023-01-20T21:09:01.376Z,100201.43
2023-01-20T21:10:04.526Z,100205.98
2023-01-20T21:11:07.623Z,100198.16
2023-01-20T21:12:10.293Z,100204.73
2023-01-20T21:13:13.803Z,100205.59
2023-01-20T21:14:20.111Z,100210.05
2023-01-20T21:15:22.881Z,100216.22
2023-01-20T21:16:25.682Z,100204.39
2023-01-20T21:17:30.063Z,100203.13
2023-01-20T21:18:34.793Z,100214.84
2023-01-20T21:19:37.321Z,100213.25
2023-01-20T21:20:41.257Z,100210.23
2023-01-20T21:21:44.658Z,100225.53
2023-01-20T21:22:47.955Z,100213.08
2023-01-20T21:23:52.401Z,100217.08
2023-01-20T21:24:55.694Z,100212.00
2023-01-20T21:26:02.228Z,100216.22
2023-01-20T21:27:05.732Z,100216.96
2023-01-20T21:28:09.551Z,100225.70
2023-01-20T21:29:12.425Z,100222.61
2023-01-20T21:30:16.026Z,100225.30
2023-01-20T21:31:23.622Z,100227.98
2023-01-20T21:32:27.122Z,100219.89
2023-01-20T21:33:29.575Z,100224.05
2023-01-20T21:34:32.891Z,100217.59
2023-01-20T21:35:39.404Z,100221.70
2023-01-20T21:36:42.957Z,100221.02
2023-01-20T21:37:48.205Z,100221.81
2023-01-20T21:38:51.819Z,100224.33
2023-01-20T21:39:56.247Z,100228.90
2023-01-20T21:41:02.058Z,100222.86
2023-01-20T21:42:07.515Z,100227.85
2023-01-20T21:43:21.705Z,100217.29
2023-01-20T21:44:34.210Z,100223.45
2023-01-20T21:45:39.473Z,100229.63
2023-01-20T21:46:42.897Z,100224.58
2023-01-20T21:47:48.156Z,100229.88
2023-01-20T21:49:08.882Z,100209.05
2023-01-20T21:50:32.362Z,100223.72
2023-01-20T21:51:54.120Z,100217.06
2023-01-20T21:52:58.367Z,100218.50
2023-01-20T21:54:01.652Z,100206.90
2023-01-20T21:55:07.674Z,100213.80
2023-01-20T21:56:12.852Z,100221.26
2023-01-20T21:57:16.257Z,100217.23
2023-01-20T21:58:19.549Z,100216.37
2023-01-20T21:59:23.365Z,100222.31
2023-01-20T22:00:26.783Z,100221.14
2023-01-20T22:01:30.782Z,100224.00
2023-01-20T22:02:34.094Z,100223.63
2023-01-20T22:03:37.806Z,100217.95
2023-01-20T22:04:42.630Z,100221.91
2023-01-20T22:05:45.341Z,100218.86
2023-01-20T22:06:47.684Z,100225.77
2023-01-20T22:07:51.870Z,100217.57
2023-01-20T22:08:54.586Z,100218.48
2023-01-20T22:09:58.337Z,100220.20
2023-01-20T22:11:03.711Z,100216.48
2023-01-20T22:12:07.388Z,100230.42
2023-01-20T22:13:10.487Z,100215.97
2023-01-20T22:14:12.950Z,100219.97
2023-01-20T22:15:16.348Z,100223.45
2023-01-20T22:16:19.904Z,100229.17
2023-01-20T22:17:23.072Z,100227.37
2023-01-20T22:18:25.823Z,100224.53
2023-01-20T22:19:30.118Z,100227.10
2023-01-20T22:20:34.539Z,100227.13
2023-01-20T22:21:38.865Z,100226.44
2023-01-20T22:22:42.252Z,100230.94
2023-01-20T22:23:46.961Z,100223.01
2023-01-20T22:24:51.032Z,100222.20
2023-01-20T22:25:53.919Z,100228.52
2023-01-20T22:26:57.112Z,100226.48
2023-01-20T22:28:01.729Z,100230.83
2023-01-20T22:29:07.739Z,100226.25
2023-01-20T22:30:13.486Z,100226.38
2023-01-20T22:31:20.932Z,100223.86
2023-01-20T22:32:23.406Z,100232.38
2023-01-20T22:33:27.014Z,100220.22
2023-01-20T22:34:29.986Z,100227.95
2023-01-20T22:35:34.023Z,100228.59
2023-01-20T22:36:37.742Z,100231.16
2023-01-20T22:37:42.311Z,100233.20
2023-01-20T22:38:46.841Z,100231.58
2023-01-20T22:39:51.386Z,100230.66
2023-01-20T22:40:55.005Z,100240.25
2023-01-20T22:41:58.345Z,100229.91
2023-01-20T22:43:01.899Z,100229.16
2023-01-20T22:44:04.364Z,100237.34
2023-01-20T22:45:12.567Z,100230.37
2023-01-20T22:46:17.897Z,100233.72
2023-01-20T22:47:22.500Z,100229.00
2023-01-20T22:48:26.663Z,100229.97
2023-01-20T22:49:29.397Z,100225.69
2023-01-20T22:50:34.337Z,100232.19
2023-01-20T22:51:40.671Z,100223.97
2023-01-20T22:52:49.695Z,100234.27
2023-01-20T22:53:53.979Z,100230.13
2023-01-20T22:54:57.272Z,100233.20
2023-01-20T22:56:07.061Z,100230.98
2023-01-20T22:57:10.225Z,100224.77
2023-01-20T22:58:12.804Z,100223.06
2023-01-20T22:59:19.389Z,100219.39
2023-01-20T23:00:25.035Z,100229.08
2023-01-20T23:01:30.702Z,100227.86
2023-01-20T23:02:35.231Z,100225.98
2023-01-20T23:03:38.897Z,100234.81
2023-01-20T23:04:42.580Z,100230.94
2023-01-20T23:05:54.482Z,100231.55
2023-01-20T23:06:57.969Z,100232.84
2023-01-20T23:08:01.479Z,100224.53
2023-01-20T23:09:08.670Z,100219.13
2023-01-20T23:10:14.701Z,100228.80
2023-01-20T23:11:22.224Z,100231.34
2023-01-20T23:12:26.567Z,100222.70
2023-01-20T23:13:31.467Z,100218.31
2023-01-20T23:14:39.434Z,100219.33
2023-01-20T23:15:44.472Z,100218.77
2023-01-20T23:16:48.821Z,100217.77
2023-01-20T23:17:52.135Z,100219.84
2023-01-20T23:18:54.499Z,100233.30
2023-01-20T23:19:57.998Z,100225.19
2023-01-20T23:21:02.533Z,100222.05
2023-01-20T23:22:05.863Z,100223.06
2023-01-20T23:23:12.157Z,100223.01
2023-01-20T23:24:15.351Z,100218.02
2023-01-20T23:25:18.760Z,100224.47
2023-01-20T23:26:22.784Z,100222.91
2023-01-20T23:27:26.298Z,100217.38
2023-01-20T23:28:29.691Z,100219.79
2023-01-20T23:29:35.045Z,100226.28
2023-01-20T23:30:39.217Z,100222.86
2023-01-20T23:31:42.627Z,100223.66
2023-01-20T23:32:47.999Z,100220.34
2023-01-20T23:33:52.240Z,100224.38
2023-01-20T23:34:55.735Z,100222.91
2023-01-20T23:36:08.937Z,100222.09